sensor_id;sensor_type;location;lat;lon;timestamp;P1;durP1;ratioP1;P2;durP2;ratioP2
1957;SDS011;979;51.076;13.748;2023-08-31T00:00:39;19.93;;;19.10;;
1957;SDS011;979;51.076;13.748;2023-08-31T00:03:18;19.50;;;18.70;;
1957;SDS011;979;51.076;13.748;2023-08-31T00:05:53;19.70;;;18.80;;
1957;SDS011;979;51.076;13.748;2023-08-31T00:09:00;19.50;;;18.73;;
1957;SDS011;979;51.076;13.748;2023-08-31T00:11:42;20.30;;;19.43;;
1957;SDS011;979;51.076;13.748;2023-08-31T00:14:23;19.87;;;19.07;;
1957;SDS011;979;51.076;13.748;2023-08-31T00:17:25;19.97;;;19.07;;
1957;SDS011;979;51.076;13.748;2023-08-31T00:23:41;19.60;;;18.70;;
1957;SDS011;979;51.076;13.748;2023-08-31T00:26:47;20.37;;;19.47;;
1957;SDS011;979;51.076;13.748;2023-08-31T00:36:02;19.60;;;18.70;;
1957;SDS011;979;51.076;13.748;2023-08-31T00:39:24;19.40;;;18.60;;
1957;SDS011;979;51.076;13.748;2023-08-31T00:42:33;18.87;;;18.07;;
1957;SDS011;979;51.076;13.748;2023-08-31T00:45:40;18.77;;;17.97;;
1957;SDS011;979;51.076;13.748;2023-08-31T00:48:34;18.63;;;17.83;;
1957;SDS011;979;51.076;13.748;2023-08-31T00:51:24;19.03;;;18.23;;
1957;SDS011;979;51.076;13.748;2023-08-31T00:53:52;18.33;;;17.63;;
1957;SDS011;979;51.076;13.748;2023-08-31T00:56:21;19.30;;;18.10;;
1957;SDS011;979;51.076;13.748;2023-08-31T00:58:50;18.17;;;17.40;;
1957;SDS011;979;51.076;13.748;2023-08-31T01:01:18;18.17;;;17.37;;
1957;SDS011;979;51.076;13.748;2023-08-31T01:03:57;17.83;;;17.00;;
1957;SDS011;979;51.076;13.748;2023-08-31T01:06:39;17.70;;;17.00;;
1957;SDS011;979;51.076;13.748;2023-08-31T01:09:25;18.23;;;17.50;;
1957;SDS011;979;51.076;13.748;2023-08-31T01:12:02;18.00;;;17.30;;
1957;SDS011;979;51.076;13.748;2023-08-31T01:14:34;18.20;;;17.50;;
1957;SDS011;979;51.076;13.748;2023-08-31T01:17:08;17.67;;;16.97;;
1957;SDS011;979;51.076;13.748;2023-08-31T01:19:47;17.93;;;17.20;;
1957;SDS011;979;51.076;13.748;2023-08-31T01:22:21;17.67;;;17.00;;
1957;SDS011;979;51.076;13.748;2023-08-31T01:24:59;17.80;;;17.00;;
1957;SDS011;979;51.076;13.748;2023-08-31T01:27:31;17.30;;;16.67;;
1957;SDS011;979;51.076;13.748;2023-08-31T01:29:59;17.63;;;17.00;;
1957;SDS011;979;51.076;13.748;2023-08-31T01:32:29;16.90;;;16.30;;
1957;SDS011;979;51.076;13.748;2023-08-31T01:34:58;17.27;;;16.67;;
1957;SDS011;979;51.076;13.748;2023-08-31T01:37:34;17.73;;;17.03;;
1957;SDS011;979;51.076;13.748;2023-08-31T01:40:09;17.00;;;16.40;;
1957;SDS011;979;51.076;13.748;2023-08-31T01:42:41;17.93;;;17.20;;
1957;SDS011;979;51.076;13.748;2023-08-31T01:45:14;18.17;;;17.50;;
1957;SDS011;979;51.076;13.748;2023-08-31T01:47:47;16.50;;;16.00;;
1957;SDS011;979;51.076;13.748;2023-08-31T01:50:17;16.70;;;16.20;;
1957;SDS011;979;51.076;13.748;2023-08-31T01:52:45;17.37;;;16.73;;
1957;SDS011;979;51.076;13.748;2023-08-31T01:55:15;16.60;;;15.90;;
1957;SDS011;979;51.076;13.748;2023-08-31T01:57:44;16.17;;;15.67;;
1957;SDS011;979;51.076;13.748;2023-08-31T02:00:18;16.10;;;15.40;;
1957;SDS011;979;51.076;13.748;2023-08-31T02:02:46;16.47;;;15.87;;
1957;SDS011;979;51.076;13.748;2023-08-31T02:05:15;16.53;;;16.00;;
1957;SDS011;979;51.076;13.748;2023-08-31T02:07:44;16.03;;;15.53;;
1957;SDS011;979;51.076;13.748;2023-08-31T02:10:13;16.17;;;15.57;;
1957;SDS011;979;51.076;13.748;2023-08-31T02:12:43;16.17;;;15.50;;
1957;SDS011;979;51.076;13.748;2023-08-31T02:15:12;15.90;;;15.30;;
1957;SDS011;979;51.076;13.748;2023-08-31T02:17:40;16.17;;;15.60;;
1957;SDS011;979;51.076;13.748;2023-08-31T02:20:10;15.40;;;15.00;;
1957;SDS011;979;51.076;13.748;2023-08-31T02:22:40;16.10;;;15.60;;
1957;SDS011;979;51.076;13.748;2023-08-31T02:25:09;15.87;;;15.37;;
1957;SDS011;979;51.076;13.748;2023-08-31T02:27:39;16.07;;;15.57;;
1957;SDS011;979;51.076;13.748;2023-08-31T02:30:09;15.97;;;15.47;;
1957;SDS011;979;51.076;13.748;2023-08-31T02:32:40;15.63;;;15.13;;
1957;SDS011;979;51.076;13.748;2023-08-31T02:35:13;15.73;;;15.33;;
1957;SDS011;979;51.076;13.748;2023-08-31T02:37:41;16.13;;;15.63;;
1957;SDS011;979;51.076;13.748;2023-08-31T02:40:10;16.20;;;15.70;;
1957;SDS011;979;51.076;13.748;2023-08-31T02:42:39;15.27;;;14.80;;
1957;SDS011;979;51.076;13.748;2023-08-31T02:45:09;16.23;;;15.67;;
1957;SDS011;979;51.076;13.748;2023-08-31T02:47:37;15.83;;;15.33;;
1957;SDS011;979;51.076;13.748;2023-08-31T02:50:06;15.80;;;15.30;;
1957;SDS011;979;51.076;13.748;2023-08-31T02:52:35;16.40;;;15.80;;
1957;SDS011;979;51.076;13.748;2023-08-31T02:55:04;16.93;;;16.43;;
1957;SDS011;979;51.076;13.748;2023-08-31T02:57:33;16.00;;;15.50;;
1957;SDS011;979;51.076;13.748;2023-08-31T03:00:04;16.27;;;15.77;;
1957;SDS011;979;51.076;13.748;2023-08-31T03:02:39;16.57;;;16.03;;
1957;SDS011;979;51.076;13.748;2023-08-31T03:05:08;16.50;;;15.90;;
1957;SDS011;979;51.076;13.748;2023-08-31T03:07:36;16.00;;;15.50;;
1957;SDS011;979;51.076;13.748;2023-08-31T03:10:06;16.70;;;16.10;;
1957;SDS011;979;51.076;13.748;2023-08-31T03:12:34;16.53;;;15.93;;
1957;SDS011;979;51.076;13.748;2023-08-31T03:15:06;16.70;;;16.20;;
1957;SDS011;979;51.076;13.748;2023-08-31T03:17:37;15.97;;;15.37;;
1957;SDS011;979;51.076;13.748;2023-08-31T03:20:09;16.10;;;15.60;;
1957;SDS011;979;51.076;13.748;2023-08-31T03:22:38;15.60;;;15.10;;
1957;SDS011;979;51.076;13.748;2023-08-31T03:25:07;15.50;;;15.00;;
1957;SDS011;979;51.076;13.748;2023-08-31T03:27:36;15.60;;;15.10;;
1957;SDS011;979;51.076;13.748;2023-08-31T03:30:05;15.57;;;15.00;;
1957;SDS011;979;51.076;13.748;2023-08-31T03:32:34;14.63;;;14.13;;
1957;SDS011;979;51.076;13.748;2023-08-31T03:35:02;14.97;;;14.57;;
1957;SDS011;979;51.076;13.748;2023-08-31T03:37:33;15.63;;;15.13;;
1957;SDS011;979;51.076;13.748;2023-08-31T03:40:09;15.43;;;14.93;;
1957;SDS011;979;51.076;13.748;2023-08-31T03:42:37;15.80;;;15.20;;
1957;SDS011;979;51.076;13.748;2023-08-31T03:45:06;14.00;;;13.60;;
1957;SDS011;979;51.076;13.748;2023-08-31T03:47:34;16.27;;;15.67;;
1957;SDS011;979;51.076;13.748;2023-08-31T03:50:06;15.87;;;15.17;;
1957;SDS011;979;51.076;13.748;2023-08-31T03:52:36;14.90;;;14.50;;
1957;SDS011;979;51.076;13.748;2023-08-31T03:55:05;14.87;;;14.47;;
1957;SDS011;979;51.076;13.748;2023-08-31T03:57:41;16.00;;;15.40;;
1957;SDS011;979;51.076;13.748;2023-08-31T04:00:14;15.77;;;15.27;;
1957;SDS011;979;51.076;13.748;2023-08-31T04:02:43;15.77;;;15.27;;
1957;SDS011;979;51.076;13.748;2023-08-31T04:05:15;15.47;;;14.97;;
1957;SDS011;979;51.076;13.748;2023-08-31T04:07:48;15.83;;;15.33;;
1957;SDS011;979;51.076;13.748;2023-08-31T04:10:16;15.20;;;14.80;;
1957;SDS011;979;51.076;13.748;2023-08-31T04:12:45;15.90;;;15.30;;
1957;SDS011;979;51.076;13.748;2023-08-31T04:15:14;15.40;;;14.90;;
1957;SDS011;979;51.076;13.748;2023-08-31T04:17:42;15.60;;;15.10;;
1957;SDS011;979;51.076;13.748;2023-08-31T04:20:11;15.90;;;15.40;;
1957;SDS011;979;51.076;13.748;2023-08-31T04:22:39;14.50;;;14.00;;
1957;SDS011;979;51.076;13.748;2023-08-31T04:25:09;15.80;;;15.30;;
1957;SDS011;979;51.076;13.748;2023-08-31T04:27:38;15.40;;;14.90;;
1957;SDS011;979;51.076;13.748;2023-08-31T04:30:07;16.07;;;15.47;;
1957;SDS011;979;51.076;13.748;2023-08-31T04:32:37;16.60;;;15.67;;
1957;SDS011;979;51.076;13.748;2023-08-31T04:35:06;16.30;;;15.70;;
1957;SDS011;979;51.076;13.748;2023-08-31T04:37:36;16.20;;;15.50;;
1957;SDS011;979;51.076;13.748;2023-08-31T04:40:05;15.77;;;15.27;;
1957;SDS011;979;51.076;13.748;2023-08-31T04:42:41;15.00;;;14.50;;
1957;SDS011;979;51.076;13.748;2023-08-31T04:45:15;16.23;;;15.73;;
1957;SDS011;979;51.076;13.748;2023-08-31T04:47:45;17.10;;;16.50;;
1957;SDS011;979;51.076;13.748;2023-08-31T04:50:16;16.33;;;15.83;;
1957;SDS011;979;51.076;13.748;2023-08-31T04:52:53;16.57;;;15.87;;
1957;SDS011;979;51.076;13.748;2023-08-31T04:55:24;16.13;;;15.63;;
1957;SDS011;979;51.076;13.748;2023-08-31T04:57:54;16.90;;;16.03;;
1957;SDS011;979;51.076;13.748;2023-08-31T05:00:27;16.93;;;16.23;;
1957;SDS011;979;51.076;13.748;2023-08-31T05:03:07;17.97;;;17.17;;
1957;SDS011;979;51.076;13.748;2023-08-31T05:05:47;17.90;;;17.20;;
1957;SDS011;979;51.076;13.748;2023-08-31T05:08:18;17.37;;;16.73;;
1957;SDS011;979;51.076;13.748;2023-08-31T05:10:51;18.07;;;17.33;;
1957;SDS011;979;51.076;13.748;2023-08-31T05:13:40;17.10;;;16.40;;
1957;SDS011;979;51.076;13.748;2023-08-31T05:19:35;17.70;;;17.00;;
1957;SDS011;979;51.076;13.748;2023-08-31T05:22:54;17.97;;;17.27;;
1957;SDS011;979;51.076;13.748;2023-08-31T05:26:16;16.00;;;15.43;;
1957;SDS011;979;51.076;13.748;2023-08-31T05:32:28;17.83;;;17.00;;
1957;SDS011;979;51.076;13.748;2023-08-31T05:36:06;18.03;;;17.30;;
1957;SDS011;979;51.076;13.748;2023-08-31T05:39:10;17.60;;;16.77;;
1957;SDS011;979;51.076;13.748;2023-08-31T05:41:57;18.80;;;17.90;;
1957;SDS011;979;51.076;13.748;2023-08-31T05:44:33;18.60;;;17.77;;
1957;SDS011;979;51.076;13.748;2023-08-31T05:47:07;17.63;;;16.77;;
1957;SDS011;979;51.076;13.748;2023-08-31T05:49:36;18.80;;;18.00;;
1957;SDS011;979;51.076;13.748;2023-08-31T05:52:20;17.27;;;16.33;;
1957;SDS011;979;51.076;13.748;2023-08-31T05:58:42;18.07;;;17.27;;
1957;SDS011;979;51.076;13.748;2023-08-31T06:01:28;19.20;;;18.40;;
1957;SDS011;979;51.076;13.748;2023-08-31T06:04:24;17.93;;;17.23;;
1957;SDS011;979;51.076;13.748;2023-08-31T06:07:06;18.83;;;18.00;;
1957;SDS011;979;51.076;13.748;2023-08-31T06:09:43;17.13;;;16.37;;
1957;SDS011;979;51.076;13.748;2023-08-31T06:12:17;18.37;;;17.47;;
1957;SDS011;979;51.076;13.748;2023-08-31T06:14:55;18.40;;;17.60;;
1957;SDS011;979;51.076;13.748;2023-08-31T06:17:35;18.20;;;17.50;;
1957;SDS011;979;51.076;13.748;2023-08-31T06:20:23;16.83;;;16.13;;
1957;SDS011;979;51.076;13.748;2023-08-31T06:22:59;17.70;;;16.90;;
1957;SDS011;979;51.076;13.748;2023-08-31T06:25:32;18.30;;;17.60;;
1957;SDS011;979;51.076;13.748;2023-08-31T06:28:11;18.77;;;18.07;;
1957;SDS011;979;51.076;13.748;2023-08-31T06:31:05;17.33;;;16.60;;
1957;SDS011;979;51.076;13.748;2023-08-31T06:33:42;18.97;;;18.13;;
1957;SDS011;979;51.076;13.748;2023-08-31T06:36:24;19.13;;;18.13;;
1957;SDS011;979;51.076;13.748;2023-08-31T06:38:53;18.47;;;17.77;;
1957;SDS011;979;51.076;13.748;2023-08-31T06:41:31;19.00;;;18.13;;
1957;SDS011;979;51.076;13.748;2023-08-31T06:44:11;19.07;;;18.37;;
1957;SDS011;979;51.076;13.748;2023-08-31T06:46:41;18.30;;;17.40;;
1957;SDS011;979;51.076;13.748;2023-08-31T06:49:10;18.20;;;17.50;;
1957;SDS011;979;51.076;13.748;2023-08-31T06:51:39;18.50;;;17.80;;
1957;SDS011;979;51.076;13.748;2023-08-31T06:54:08;19.53;;;18.47;;
1957;SDS011;979;51.076;13.748;2023-08-31T06:56:41;17.80;;;17.10;;
1957;SDS011;979;51.076;13.748;2023-08-31T06:59:11;18.50;;;17.73;;
1957;SDS011;979;51.076;13.748;2023-08-31T07:01:39;19.73;;;18.57;;
1957;SDS011;979;51.076;13.748;2023-08-31T07:04:08;18.30;;;17.40;;
1957;SDS011;979;51.076;13.748;2023-08-31T07:06:37;18.77;;;17.97;;
1957;SDS011;979;51.076;13.748;2023-08-31T07:09:07;19.30;;;18.50;;
1957;SDS011;979;51.076;13.748;2023-08-31T07:11:36;18.73;;;18.03;;
1957;SDS011;979;51.076;13.748;2023-08-31T07:14:05;18.50;;;17.70;;
1957;SDS011;979;51.076;13.748;2023-08-31T07:16:33;19.40;;;18.70;;
1957;SDS011;979;51.076;13.748;2023-08-31T07:19:02;19.53;;;18.77;;
1957;SDS011;979;51.076;13.748;2023-08-31T07:21:31;19.37;;;18.57;;
1957;SDS011;979;51.076;13.748;2023-08-31T07:24:00;19.73;;;18.93;;
1957;SDS011;979;51.076;13.748;2023-08-31T07:26:29;18.27;;;17.67;;
1957;SDS011;979;51.076;13.748;2023-08-31T07:28:58;18.60;;;17.90;;
1957;SDS011;979;51.076;13.748;2023-08-31T07:31:28;19.20;;;18.30;;
1957;SDS011;979;51.076;13.748;2023-08-31T07:33:58;19.03;;;18.13;;
1957;SDS011;979;51.076;13.748;2023-08-31T07:36:27;18.47;;;17.67;;
1957;SDS011;979;51.076;13.748;2023-08-31T07:38:56;18.57;;;17.67;;
1957;SDS011;979;51.076;13.748;2023-08-31T07:41:26;18.37;;;17.67;;
1957;SDS011;979;51.076;13.748;2023-08-31T07:43:54;18.80;;;18.00;;
1957;SDS011;979;51.076;13.748;2023-08-31T07:46:30;19.80;;;18.80;;
1957;SDS011;979;51.076;13.748;2023-08-31T07:48:59;19.37;;;18.47;;
1957;SDS011;979;51.076;13.748;2023-08-31T07:51:27;18.13;;;17.43;;
1957;SDS011;979;51.076;13.748;2023-08-31T07:53:56;18.27;;;17.53;;
1957;SDS011;979;51.076;13.748;2023-08-31T07:56:26;17.77;;;16.97;;
1957;SDS011;979;51.076;13.748;2023-08-31T07:58:54;18.23;;;17.63;;
1957;SDS011;979;51.076;13.748;2023-08-31T08:01:23;18.13;;;17.43;;
1957;SDS011;979;51.076;13.748;2023-08-31T08:03:53;18.50;;;17.80;;
1957;SDS011;979;51.076;13.748;2023-08-31T08:06:25;19.10;;;18.20;;
1957;SDS011;979;51.076;13.748;2023-08-31T08:08:54;18.60;;;17.87;;
1957;SDS011;979;51.076;13.748;2023-08-31T08:11:22;18.40;;;17.70;;
1957;SDS011;979;51.076;13.748;2023-08-31T08:13:52;18.23;;;17.53;;
1957;SDS011;979;51.076;13.748;2023-08-31T08:16:21;19.17;;;18.17;;
1957;SDS011;979;51.076;13.748;2023-08-31T08:18:50;18.80;;;17.90;;
1957;SDS011;979;51.076;13.748;2023-08-31T08:21:20;18.53;;;17.93;;
1957;SDS011;979;51.076;13.748;2023-08-31T08:24:03;19.37;;;18.47;;
1957;SDS011;979;51.076;13.748;2023-08-31T08:26:32;19.03;;;18.13;;
1957;SDS011;979;51.076;13.748;2023-08-31T08:29:05;19.30;;;18.60;;
1957;SDS011;979;51.076;13.748;2023-08-31T08:31:43;19.60;;;18.50;;
1957;SDS011;979;51.076;13.748;2023-08-31T08:34:15;19.70;;;18.60;;
1957;SDS011;979;51.076;13.748;2023-08-31T08:36:48;18.00;;;17.30;;
1957;SDS011;979;51.076;13.748;2023-08-31T08:39:17;18.90;;;18.10;;
1957;SDS011;979;51.076;13.748;2023-08-31T08:41:46;21.07;;;19.13;;
1957;SDS011;979;51.076;13.748;2023-08-31T08:44:21;18.83;;;18.10;;
1957;SDS011;979;51.076;13.748;2023-08-31T08:46:53;19.07;;;18.27;;
1957;SDS011;979;51.076;13.748;2023-08-31T08:49:25;18.33;;;17.63;;
1957;SDS011;979;51.076;13.748;2023-08-31T08:51:54;18.73;;;17.87;;
1957;SDS011;979;51.076;13.748;2023-08-31T08:54:23;19.80;;;18.80;;
1957;SDS011;979;51.076;13.748;2023-08-31T08:56:52;19.10;;;18.30;;
1957;SDS011;979;51.076;13.748;2023-08-31T08:59:22;19.23;;;18.43;;
1957;SDS011;979;51.076;13.748;2023-08-31T09:01:51;19.40;;;18.50;;
1957;SDS011;979;51.076;13.748;2023-08-31T09:04:20;19.10;;;18.30;;
1957;SDS011;979;51.076;13.748;2023-08-31T09:06:50;19.17;;;18.47;;
1957;SDS011;979;51.076;13.748;2023-08-31T09:09:18;19.37;;;18.37;;
1957;SDS011;979;51.076;13.748;2023-08-31T09:11:48;18.70;;;18.00;;
1957;SDS011;979;51.076;13.748;2023-08-31T09:14:18;19.67;;;18.87;;
1957;SDS011;979;51.076;13.748;2023-08-31T09:16:49;18.70;;;17.87;;
1957;SDS011;979;51.076;13.748;2023-08-31T09:19:19;18.60;;;17.90;;
1957;SDS011;979;51.076;13.748;2023-08-31T09:21:48;19.03;;;18.40;;
1957;SDS011;979;51.076;13.748;2023-08-31T09:24:18;19.60;;;18.80;;
1957;SDS011;979;51.076;13.748;2023-08-31T09:26:48;18.40;;;17.60;;
1957;SDS011;979;51.076;13.748;2023-08-31T09:29:19;18.60;;;17.70;;
1957;SDS011;979;51.076;13.748;2023-08-31T09:31:49;18.37;;;17.43;;
1957;SDS011;979;51.076;13.748;2023-08-31T09:34:19;18.37;;;17.57;;
1957;SDS011;979;51.076;13.748;2023-08-31T09:36:48;18.87;;;18.17;;
1957;SDS011;979;51.076;13.748;2023-08-31T09:39:17;18.60;;;17.90;;
1957;SDS011;979;51.076;13.748;2023-08-31T09:41:52;18.73;;;18.03;;
1957;SDS011;979;51.076;13.748;2023-08-31T09:44:21;18.80;;;18.10;;
1957;SDS011;979;51.076;13.748;2023-08-31T09:46:51;19.37;;;18.47;;
1957;SDS011;979;51.076;13.748;2023-08-31T09:49:20;19.20;;;18.30;;
1957;SDS011;979;51.076;13.748;2023-08-31T09:51:49;18.60;;;17.90;;
1957;SDS011;979;51.076;13.748;2023-08-31T09:54:19;19.27;;;18.47;;
1957;SDS011;979;51.076;13.748;2023-08-31T09:56:48;18.50;;;17.80;;
1957;SDS011;979;51.076;13.748;2023-08-31T09:59:17;19.70;;;18.80;;
1957;SDS011;979;51.076;13.748;2023-08-31T10:01:46;19.00;;;18.30;;
1957;SDS011;979;51.076;13.748;2023-08-31T10:04:17;18.33;;;17.63;;
1957;SDS011;979;51.076;13.748;2023-08-31T10:06:49;18.60;;;17.80;;
1957;SDS011;979;51.076;13.748;2023-08-31T10:09:18;18.63;;;17.83;;
1957;SDS011;979;51.076;13.748;2023-08-31T10:11:47;19.27;;;18.37;;
1957;SDS011;979;51.076;13.748;2023-08-31T10:14:16;18.87;;;17.97;;
1957;SDS011;979;51.076;13.748;2023-08-31T10:16:47;18.40;;;17.50;;
1957;SDS011;979;51.076;13.748;2023-08-31T10:19:20;18.73;;;17.93;;
1957;SDS011;979;51.076;13.748;2023-08-31T10:21:49;18.37;;;17.53;;
1957;SDS011;979;51.076;13.748;2023-08-31T10:24:18;19.80;;;19.00;;
1957;SDS011;979;51.076;13.748;2023-08-31T10:27:17;18.77;;;18.00;;
1957;SDS011;979;51.076;13.748;2023-08-31T10:29:46;18.47;;;17.77;;
1957;SDS011;979;51.076;13.748;2023-08-31T10:32:16;18.30;;;17.60;;
1957;SDS011;979;51.076;13.748;2023-08-31T10:37:39;17.60;;;16.90;;
1957;SDS011;979;51.076;13.748;2023-08-31T10:40:10;17.93;;;17.13;;
1957;SDS011;979;51.076;13.748;2023-08-31T10:42:41;17.70;;;17.10;;
1957;SDS011;979;51.076;13.748;2023-08-31T10:45:11;18.50;;;17.70;;
1957;SDS011;979;51.076;13.748;2023-08-31T10:47:40;18.00;;;17.27;;
1957;SDS011;979;51.076;13.748;2023-08-31T10:50:20;18.43;;;17.57;;
1957;SDS011;979;51.076;13.748;2023-08-31T10:52:54;18.97;;;18.27;;
1957;SDS011;979;51.076;13.748;2023-08-31T10:55:23;18.83;;;18.17;;
1957;SDS011;979;51.076;13.748;2023-08-31T10:57:53;19.27;;;18.37;;
1957;SDS011;979;51.076;13.748;2023-08-31T11:03:25;18.60;;;17.90;;
1957;SDS011;979;51.076;13.748;2023-08-31T11:05:57;17.60;;;16.70;;
1957;SDS011;979;51.076;13.748;2023-08-31T11:08:25;17.43;;;16.83;;
1957;SDS011;979;51.076;13.748;2023-08-31T11:10:54;18.77;;;17.97;;
1957;SDS011;979;51.076;13.748;2023-08-31T11:13:24;17.90;;;17.10;;
1957;SDS011;979;51.076;13.748;2023-08-31T11:15:52;18.53;;;17.50;;
1957;SDS011;979;51.076;13.748;2023-08-31T11:18:24;18.57;;;17.60;;
1957;SDS011;979;51.076;13.748;2023-08-31T11:20:53;18.83;;;17.90;;
1957;SDS011;979;51.076;13.748;2023-08-31T11:26:59;17.40;;;16.80;;
1957;SDS011;979;51.076;13.748;2023-08-31T11:29:36;17.43;;;16.83;;
1957;SDS011;979;51.076;13.748;2023-08-31T11:32:06;17.53;;;16.93;;
1957;SDS011;979;51.076;13.748;2023-08-31T11:34:39;17.63;;;17.03;;
1957;SDS011;979;51.076;13.748;2023-08-31T11:37:08;17.30;;;16.50;;
1957;SDS011;979;51.076;13.748;2023-08-31T11:39:40;17.53;;;16.80;;
1957;SDS011;979;51.076;13.748;2023-08-31T11:42:11;17.40;;;16.80;;
1957;SDS011;979;51.076;13.748;2023-08-31T11:44:56;16.90;;;16.37;;
1957;SDS011;979;51.076;13.748;2023-08-31T11:47:53;17.30;;;16.70;;
1957;SDS011;979;51.076;13.748;2023-08-31T11:50:25;18.10;;;17.30;;
1957;SDS011;979;51.076;13.748;2023-08-31T11:53:01;17.90;;;17.30;;
1957;SDS011;979;51.076;13.748;2023-08-31T11:55:31;18.00;;;17.40;;
1957;SDS011;979;51.076;13.748;2023-08-31T11:58:06;17.70;;;17.10;;
1957;SDS011;979;51.076;13.748;2023-08-31T12:00:55;18.63;;;17.80;;
1957;SDS011;979;51.076;13.748;2023-08-31T12:03:43;19.67;;;18.97;;
1957;SDS011;979;51.076;13.748;2023-08-31T12:06:30;17.27;;;16.67;;
1957;SDS011;979;51.076;13.748;2023-08-31T12:09:08;17.77;;;17.10;;
1957;SDS011;979;51.076;13.748;2023-08-31T12:11:53;18.80;;;18.07;;
1957;SDS011;979;51.076;13.748;2023-08-31T12:14:24;19.10;;;18.40;;
1957;SDS011;979;51.076;13.748;2023-08-31T12:17:00;19.20;;;18.60;;
1957;SDS011;979;51.076;13.748;2023-08-31T12:19:30;19.10;;;18.40;;
1957;SDS011;979;51.076;13.748;2023-08-31T12:22:02;18.70;;;18.10;;
1957;SDS011;979;51.076;13.748;2023-08-31T12:24:40;18.10;;;17.50;;
1957;SDS011;979;51.076;13.748;2023-08-31T12:27:09;18.97;;;17.93;;
1957;SDS011;979;51.076;13.748;2023-08-31T12:29:45;18.77;;;17.87;;
1957;SDS011;979;51.076;13.748;2023-08-31T12:32:15;17.57;;;16.87;;
1957;SDS011;979;51.076;13.748;2023-08-31T12:34:48;17.50;;;16.90;;
1957;SDS011;979;51.076;13.748;2023-08-31T12:37:17;17.20;;;16.60;;
1957;SDS011;979;51.076;13.748;2023-08-31T12:39:46;17.97;;;17.27;;
1957;SDS011;979;51.076;13.748;2023-08-31T12:42:15;18.70;;;18.00;;
1957;SDS011;979;51.076;13.748;2023-08-31T12:44:51;17.53;;;16.93;;
1957;SDS011;979;51.076;13.748;2023-08-31T12:47:19;18.30;;;17.70;;
1957;SDS011;979;51.076;13.748;2023-08-31T12:49:49;17.30;;;16.80;;
1957;SDS011;979;51.076;13.748;2023-08-31T12:52:22;17.30;;;16.70;;
1957;SDS011;979;51.076;13.748;2023-08-31T12:54:51;16.83;;;16.33;;
1957;SDS011;979;51.076;13.748;2023-08-31T12:57:19;17.70;;;16.80;;
1957;SDS011;979;51.076;13.748;2023-08-31T12:59:53;17.30;;;16.70;;
1957;SDS011;979;51.076;13.748;2023-08-31T13:02:21;17.33;;;16.63;;
1957;SDS011;979;51.076;13.748;2023-08-31T13:04:53;16.60;;;16.10;;
1957;SDS011;979;51.076;13.748;2023-08-31T13:07:22;17.43;;;16.67;;
1957;SDS011;979;51.076;13.748;2023-08-31T13:09:51;17.20;;;16.50;;
1957;SDS011;979;51.076;13.748;2023-08-31T13:12:20;17.17;;;16.47;;
1957;SDS011;979;51.076;13.748;2023-08-31T13:14:54;17.40;;;16.83;;
1957;SDS011;979;51.076;13.748;2023-08-31T13:17:28;17.57;;;16.97;;
1957;SDS011;979;51.076;13.748;2023-08-31T13:19:57;18.73;;;18.03;;
1957;SDS011;979;51.076;13.748;2023-08-31T13:22:27;18.57;;;17.97;;
1957;SDS011;979;51.076;13.748;2023-08-31T13:24:56;18.60;;;17.93;;
1957;SDS011;979;51.076;13.748;2023-08-31T13:27:25;17.83;;;17.20;;
1957;SDS011;979;51.076;13.748;2023-08-31T13:29:56;18.17;;;17.37;;
1957;SDS011;979;51.076;13.748;2023-08-31T13:32:25;18.50;;;17.90;;
1957;SDS011;979;51.076;13.748;2023-08-31T13:34:57;16.83;;;16.33;;
1957;SDS011;979;51.076;13.748;2023-08-31T13:37:37;17.90;;;17.30;;
1957;SDS011;979;51.076;13.748;2023-08-31T13:40:09;18.43;;;17.80;;
1957;SDS011;979;51.076;13.748;2023-08-31T13:42:59;18.00;;;17.40;;
1957;SDS011;979;51.076;13.748;2023-08-31T13:52:41;17.07;;;16.47;;
1957;SDS011;979;51.076;13.748;2023-08-31T13:59:24;17.90;;;17.30;;
1957;SDS011;979;51.076;13.748;2023-08-31T14:02:04;16.93;;;16.33;;
1957;SDS011;979;51.076;13.748;2023-08-31T14:13:04;17.00;;;16.40;;
1957;SDS011;979;51.076;13.748;2023-08-31T14:15:57;18.23;;;17.00;;
1957;SDS011;979;51.076;13.748;2023-08-31T14:18:40;17.27;;;16.77;;
1957;SDS011;979;51.076;13.748;2023-08-31T14:21:16;19.03;;;18.30;;
1957;SDS011;979;51.076;13.748;2023-08-31T14:23:49;18.00;;;17.40;;
1957;SDS011;979;51.076;13.748;2023-08-31T14:26:38;17.40;;;16.80;;
1957;SDS011;979;51.076;13.748;2023-08-31T14:29:36;17.60;;;17.00;;
1957;SDS011;979;51.076;13.748;2023-08-31T14:32:18;17.50;;;16.40;;
1957;SDS011;979;51.076;13.748;2023-08-31T14:35:44;17.00;;;16.20;;
1957;SDS011;979;51.076;13.748;2023-08-31T14:38:25;17.87;;;17.27;;
1957;SDS011;979;51.076;13.748;2023-08-31T14:41:15;17.10;;;16.60;;
1957;SDS011;979;51.076;13.748;2023-08-31T15:52:27;17.17;;;16.67;;
1957;SDS011;979;51.076;13.748;2023-08-31T15:55:57;18.00;;;17.40;;
1957;SDS011;979;51.076;13.748;2023-08-31T15:58:38;17.73;;;17.13;;
1957;SDS011;979;51.076;13.748;2023-08-31T16:01:15;17.27;;;16.47;;
1957;SDS011;979;51.076;13.748;2023-08-31T16:08:03;16.40;;;15.70;;
1957;SDS011;979;51.076;13.748;2023-08-31T16:11:19;16.50;;;15.90;;
1957;SDS011;979;51.076;13.748;2023-08-31T16:17:20;16.43;;;15.83;;
1957;SDS011;979;51.076;13.748;2023-08-31T16:20:14;16.80;;;16.10;;
1957;SDS011;979;51.076;13.748;2023-08-31T16:23:13;15.43;;;14.73;;
1957;SDS011;979;51.076;13.748;2023-08-31T16:25:55;19.23;;;18.40;;
1957;SDS011;979;51.076;13.748;2023-08-31T16:28:37;17.23;;;16.53;;
1957;SDS011;979;51.076;13.748;2023-08-31T16:31:27;17.27;;;16.67;;
1957;SDS011;979;51.076;13.748;2023-08-31T16:34:40;16.30;;;15.80;;
1957;SDS011;979;51.076;13.748;2023-08-31T16:37:28;16.37;;;15.77;;
1957;SDS011;979;51.076;13.748;2023-08-31T16:40:21;16.13;;;15.53;;
1957;SDS011;979;51.076;13.748;2023-08-31T16:43:26;16.23;;;15.57;;
1957;SDS011;979;51.076;13.748;2023-08-31T16:46:12;16.00;;;15.27;;
1957;SDS011;979;51.076;13.748;2023-08-31T16:49:21;16.40;;;15.70;;
1957;SDS011;979;51.076;13.748;2023-08-31T16:52:15;16.27;;;15.63;;
1957;SDS011;979;51.076;13.748;2023-08-31T16:57:56;15.97;;;15.47;;
1957;SDS011;979;51.076;13.748;2023-08-31T17:26:25;19.13;;;18.43;;
1957;SDS011;979;51.076;13.748;2023-08-31T17:29:46;16.43;;;15.90;;
1957;SDS011;979;51.076;13.748;2023-08-31T17:32:58;16.90;;;16.30;;
1957;SDS011;979;51.076;13.748;2023-08-31T17:36:05;15.80;;;15.30;;
1957;SDS011;979;51.076;13.748;2023-08-31T17:54:08;15.57;;;15.07;;
1957;SDS011;979;51.076;13.748;2023-08-31T17:57:41;16.60;;;15.70;;
1957;SDS011;979;51.076;13.748;2023-08-31T18:01:07;15.73;;;15.23;;
1957;SDS011;979;51.076;13.748;2023-08-31T18:04:31;16.07;;;15.40;;
1957;SDS011;979;51.076;13.748;2023-08-31T18:08:07;15.00;;;14.60;;
1957;SDS011;979;51.076;13.748;2023-08-31T18:11:09;15.83;;;15.23;;
1957;SDS011;979;51.076;13.748;2023-08-31T18:14:10;16.00;;;15.40;;
1957;SDS011;979;51.076;13.748;2023-08-31T18:18:00;16.00;;;15.50;;
1957;SDS011;979;51.076;13.748;2023-08-31T18:23:43;16.80;;;16.10;;
1957;SDS011;979;51.076;13.748;2023-08-31T18:27:32;16.63;;;16.10;;
1957;SDS011;979;51.076;13.748;2023-08-31T18:30:43;16.87;;;16.17;;
1957;SDS011;979;51.076;13.748;2023-08-31T18:33:39;16.97;;;16.20;;
1957;SDS011;979;51.076;13.748;2023-08-31T18:36:53;17.07;;;16.30;;
1957;SDS011;979;51.076;13.748;2023-08-31T18:49:18;16.57;;;15.80;;